sensor_id;sensor_type;location;lat;lon;timestamp;pressure;altitude;pressure_sealevel;temperature;humidity
54546;BME280;40444;45.184;9.850;2022-08-24T00:02:02;100814.13;;;23.07;65.74
54546;BME280;40444;45.184;9.850;2022-08-24T00:04:31;100812.50;;;23.00;66.29
54546;BME280;40444;45.184;9.850;2022-08-24T00:07:00;100809.13;;;22.91;66.55
54546;BME280;40444;45.184;9.850;2022-08-24T00:09:31;100815.63;;;22.83;66.93
54546;BME280;40444;45.184;9.850;2022-08-24T00:12:00;100819.63;;;22.81;67.45
54546;BME280;40444;45.184;9.850;2022-08-24T00:14:30;100822.38;;;22.74;67.80
54546;BME280;40444;45.184;9.850;2022-08-24T00:16:59;100819.84;;;22.66;67.90
54546;BME280;40444;45.184;9.850;2022-08-24T00:19:28;100820.25;;;22.63;68.41
54546;BME280;40444;45.184;9.850;2022-08-24T00:21:57;100817.56;;;22.56;68.52
54546;BME280;40444;45.184;9.850;2022-08-24T00:24:26;100822.38;;;22.54;68.57
54546;BME280;40444;45.184;9.850;2022-08-24T00:26:55;100823.00;;;22.50;69.04
54546;BME280;40444;45.184;9.850;2022-08-24T00:29:23;100823.00;;;22.50;68.85
54546;BME280;40444;45.184;9.850;2022-08-24T00:31:52;100817.97;;;22.47;69.10
54546;BME280;40444;45.184;9.850;2022-08-24T00:34:20;100812.72;;;22.45;69.38
54546;BME280;40444;45.184;9.850;2022-08-24T00:36:49;100808.31;;;22.37;69.79
54546;BME280;40444;45.184;9.850;2022-08-24T00:39:18;100810.81;;;22.32;69.81
54546;BME280;40444;45.184;9.850;2022-08-24T00:41:47;100815.25;;;22.33;70.11
54546;BME280;40444;45.184;9.850;2022-08-24T00:44:18;100813.78;;;22.24;70.62
54546;BME280;40444;45.184;9.850;2022-08-24T00:49:29;100813.97;;;22.23;71.12
54546;BME280;40444;45.184;9.850;2022-08-24T00:52:17;100814.81;;;22.16;71.09
54546;BME280;40444;45.184;9.850;2022-08-24T00:55:08;100815.63;;;22.10;71.15
54546;BME280;40444;45.184;9.850;2022-08-24T00:57:40;100818.16;;;22.12;71.27
54546;BME280;40444;45.184;9.850;2022-08-24T01:00:17;100811.00;;;22.11;71.48
54546;BME280;40444;45.184;9.850;2022-08-24T01:02:50;100816.03;;;22.14;71.37
54546;BME280;40444;45.184;9.850;2022-08-24T01:05:20;100811.41;;;22.01;72.01
54546;BME280;40444;45.184;9.850;2022-08-24T01:07:49;100813.47;;;21.99;72.14
54546;BME280;40444;45.184;9.850;2022-08-24T01:10:24;100816.63;;;21.96;72.38
54546;BME280;40444;45.184;9.850;2022-08-24T01:12:56;100811.78;;;21.91;72.79
54546;BME280;40444;45.184;9.850;2022-08-24T01:15:29;100808.88;;;21.93;72.81
54546;BME280;40444;45.184;9.850;2022-08-24T01:17:59;100803.19;;;21.88;72.76
54546;BME280;40444;45.184;9.850;2022-08-24T01:21:13;100806.97;;;21.93;72.74
54546;BME280;40444;45.184;9.850;2022-08-24T01:23:49;100808.66;;;21.94;72.48
54546;BME280;40444;45.184;9.850;2022-08-24T01:26:22;100803.81;;;21.96;72.43
54546;BME280;40444;45.184;9.850;2022-08-24T01:28:56;100800.06;;;21.98;72.35
54546;BME280;40444;45.184;9.850;2022-08-24T01:31:28;100804.88;;;21.95;72.36
54546;BME280;40444;45.184;9.850;2022-08-24T01:33:57;100799.84;;;21.92;72.51
54546;BME280;40444;45.184;9.850;2022-08-24T01:36:30;100797.53;;;21.89;72.50
54546;BME280;40444;45.184;9.850;2022-08-24T01:39:15;100802.09;;;21.82;72.69
54546;BME280;40444;45.184;9.850;2022-08-24T01:41:46;100800.84;;;21.72;73.07
54546;BME280;40444;45.184;9.850;2022-08-24T01:44:15;100802.53;;;21.79;73.00
54546;BME280;40444;45.184;9.850;2022-08-24T01:46:47;100799.16;;;21.77;72.74
54546;BME280;40444;45.184;9.850;2022-08-24T01:49:16;100799.81;;;21.79;72.71
54546;BME280;40444;45.184;9.850;2022-08-24T01:51:44;100805.28;;;21.79;72.74
54546;BME280;40444;45.184;9.850;2022-08-24T01:54:14;100804.22;;;21.80;72.83
54546;BME280;40444;45.184;9.850;2022-08-24T01:56:42;100802.28;;;21.74;72.96
54546;BME280;40444;45.184;9.850;2022-08-24T01:59:12;100796.00;;;21.74;72.92
54546;BME280;40444;45.184;9.850;2022-08-24T02:01:47;100803.78;;;21.77;72.77
54546;BME280;40444;45.184;9.850;2022-08-24T02:04:18;100807.13;;;21.72;73.14
54546;BME280;40444;45.184;9.850;2022-08-24T02:06:47;100806.06;;;21.73;73.10
54546;BME280;40444;45.184;9.850;2022-08-24T02:09:16;100803.34;;;21.66;73.30
54546;BME280;40444;45.184;9.850;2022-08-24T02:11:46;100805.22;;;21.66;73.13
54546;BME280;40444;45.184;9.850;2022-08-24T02:14:15;100801.22;;;21.62;73.39
54546;BME280;40444;45.184;9.850;2022-08-24T02:16:45;100806.69;;;21.62;73.33
54546;BME280;40444;45.184;9.850;2022-08-24T02:19:21;100808.75;;;21.60;73.36
54546;BME280;40444;45.184;9.850;2022-08-24T02:21:50;100801.22;;;21.62;73.30
54546;BME280;40444;45.184;9.850;2022-08-24T02:24:19;100811.50;;;21.60;73.84
54546;BME280;40444;45.184;9.850;2022-08-24T02:26:49;100804.56;;;21.57;73.61
54546;BME280;40444;45.184;9.850;2022-08-24T02:29:18;100810.88;;;21.58;73.77
54546;BME280;40444;45.184;9.850;2022-08-24T02:31:46;100803.94;;;21.55;73.71
54546;BME280;40444;45.184;9.850;2022-08-24T02:34:15;100800.34;;;21.55;73.75
54546;BME280;40444;45.184;9.850;2022-08-24T02:36:45;100803.31;;;21.53;73.91
54546;BME280;40444;45.184;9.850;2022-08-24T02:39:14;100807.47;;;21.49;73.96
54546;BME280;40444;45.184;9.850;2022-08-24T02:41:46;100810.81;;;21.51;73.80
54546;BME280;40444;45.184;9.850;2022-08-24T02:44:14;100815.44;;;21.51;73.92
54546;BME280;40444;45.184;9.850;2022-08-24T02:46:43;100806.66;;;21.55;73.83
54546;BME280;40444;45.184;9.850;2022-08-24T02:49:12;100808.94;;;21.52;73.84
54546;BME280;40444;45.184;9.850;2022-08-24T02:51:43;100815.66;;;21.49;74.20
54546;BME280;40444;45.184;9.850;2022-08-24T02:54:17;100804.13;;;21.54;74.04
54546;BME280;40444;45.184;9.850;2022-08-24T02:56:47;100809.97;;;21.44;74.36
54546;BME280;40444;45.184;9.850;2022-08-24T02:59:16;100811.00;;;21.43;74.55
54546;BME280;40444;45.184;9.850;2022-08-24T03:01:49;100815.00;;;21.40;74.34
54546;BME280;40444;45.184;9.850;2022-08-24T03:04:20;100810.78;;;21.38;74.60
54546;BME280;40444;45.184;9.850;2022-08-24T03:06:48;100809.13;;;21.43;74.34
54546;BME280;40444;45.184;9.850;2022-08-24T03:09:17;100812.88;;;21.36;74.64
54546;BME280;40444;45.184;9.850;2022-08-24T03:11:50;100801.97;;;21.36;74.67
54546;BME280;40444;45.184;9.850;2022-08-24T03:14:19;100807.13;;;21.24;75.11
54546;BME280;40444;45.184;9.850;2022-08-24T03:16:47;100803.03;;;21.35;74.94
54546;BME280;40444;45.184;9.850;2022-08-24T03:19:17;100807.03;;;21.39;74.50
54546;BME280;40444;45.184;9.850;2022-08-24T03:21:45;100810.38;;;21.34;74.77
54546;BME280;40444;45.184;9.850;2022-08-24T03:24:13;100809.09;;;21.37;74.72
